Castana, Iowa
Current Conditions -  °F | °C
As of 5:54 PM on Thursday 27 Nov 2014 (Local Time) from KTQE Reporting Station
Clear Clear  
Wind Chill:   Ceiling: Unl
Heat Index: 20°   Visibility: 10mi
Dew Point:   Wind: 12mph
Humidity: 57%   Direction: 140°SE
Pressure: 30.32"   Gusts: NA
Location:  42.07°N, 95.91°W
Report Text: KTQE 272354Z AUTO 14010KT 10SM CLR M07/M14 A3032 RMK AO2 SLP281 T10671139 11056 21089 55018
Loading
Personal Weather Stations






























Interactive Weather Map New forecast layout! Learn more

10-Day Weather Forecast

Advertisements
Track Severe Weather on mobile